sensor_id;sensor_type;location;lat;lon;timestamp;temperature;humidity
50690;DHT22;54375;48.298;11.238;2022-12-18T00:07:27;-5.90;95.50
50690;DHT22;54375;48.298;11.238;2022-12-18T00:27:29;-5.90;95.10
50690;DHT22;54375;48.298;11.238;2022-12-18T00:47:32;-6.20;94.90
50690;DHT22;54375;48.298;11.238;2022-12-18T01:07:34;-6.40;94.80
50690;DHT22;54375;48.298;11.238;2022-12-18T01:27:37;-6.50;94.90
50690;DHT22;54375;48.298;11.238;2022-12-18T01:47:43;-6.70;94.70
50690;DHT22;54375;48.298;11.238;2022-12-18T02:07:48;-6.70;94.90
50690;DHT22;54375;48.298;11.238;2022-12-18T02:27:56;-6.70;95.00
50690;DHT22;54375;48.298;11.238;2022-12-18T02:48:01;-6.70;95.20
50690;DHT22;54375;48.298;11.238;2022-12-18T03:08:07;-6.70;95.50
50690;DHT22;54375;48.298;11.238;2022-12-18T03:28:13;-6.60;95.30
50690;DHT22;54375;48.298;11.238;2022-12-18T03:48:20;-6.60;95.20
50690;DHT22;54375;48.298;11.238;2022-12-18T04:08:26;-6.60;95.10
50690;DHT22;54375;48.298;11.238;2022-12-18T04:28:29;-6.50;95.10
50690;DHT22;54375;48.298;11.238;2022-12-18T04:48:32;-6.50;95.10
50690;DHT22;54375;48.298;11.238;2022-12-18T05:08:35;-6.50;95.10
50690;DHT22;54375;48.298;11.238;2022-12-18T05:28:39;-6.40;95.10
50690;DHT22;54375;48.298;11.238;2022-12-18T05:48:42;-6.30;95.20
50690;DHT22;54375;48.298;11.238;2022-12-18T06:08:44;-6.40;95.10
50690;DHT22;54375;48.298;11.238;2022-12-18T06:28:47;-6.40;95.00
50690;DHT22;54375;48.298;11.238;2022-12-18T06:48:50;-6.30;95.00
50690;DHT22;54375;48.298;11.238;2022-12-18T07:08:53;-6.30;95.10
50690;DHT22;54375;48.298;11.238;2022-12-18T07:28:57;-6.30;95.00
50690;DHT22;54375;48.298;11.238;2022-12-18T07:48:59;-6.20;95.20
50690;DHT22;54375;48.298;11.238;2022-12-18T08:09:02;-5.90;95.00
50690;DHT22;54375;48.298;11.238;2022-12-18T08:29:04;-5.50;94.80
50690;DHT22;54375;48.298;11.238;2022-12-18T08:49:08;-5.20;94.30
50690;DHT22;54375;48.298;11.238;2022-12-18T09:09:10;-5.00;93.90
50690;DHT22;54375;48.298;11.238;2022-12-18T09:29:12;-4.60;93.20
50690;DHT22;54375;48.298;11.238;2022-12-18T09:49:17;-4.40;92.40
50690;DHT22;54375;48.298;11.238;2022-12-18T10:09:27;-4.30;91.50
50690;DHT22;54375;48.298;11.238;2022-12-18T10:29:30;-4.00;91.00
50690;DHT22;54375;48.298;11.238;2022-12-18T10:49:33;-3.70;89.90
50690;DHT22;54375;48.298;11.238;2022-12-18T11:09:37;-3.80;88.80
50690;DHT22;54375;48.298;11.238;2022-12-18T11:29:40;-3.50;88.40
50690;DHT22;54375;48.298;11.238;2022-12-18T11:49:42;-3.10;87.00
50690;DHT22;54375;48.298;11.238;2022-12-18T12:09:50;-2.70;85.10
50690;DHT22;54375;48.298;11.238;2022-12-18T12:30:03;-2.80;84.30
50690;DHT22;54375;48.298;11.238;2022-12-18T12:50:15;-3.20;85.00
50690;DHT22;54375;48.298;11.238;2022-12-18T13:10:28;-3.20;84.60
50690;DHT22;54375;48.298;11.238;2022-12-18T13:30:53;-3.50;84.40
50690;DHT22;54375;48.298;11.238;2022-12-18T13:51:02;-3.80;86.40
50690;DHT22;54375;48.298;11.238;2022-12-18T14:11:06;-4.70;89.50
50690;DHT22;54375;48.298;11.238;2022-12-18T14:31:17;-4.80;90.40
50690;DHT22;54375;48.298;11.238;2022-12-18T14:51:21;-5.10;91.10
50690;DHT22;54375;48.298;11.238;2022-12-18T15:11:28;-5.30;91.50
50690;DHT22;54375;48.298;11.238;2022-12-18T15:31:32;-5.50;92.10
50690;DHT22;54375;48.298;11.238;2022-12-18T15:51:35;-5.70;92.50
50690;DHT22;54375;48.298;11.238;2022-12-18T16:11:41;-5.80;93.00
50690;DHT22;54375;48.298;11.238;2022-12-18T16:31:44;-5.90;93.30
50690;DHT22;54375;48.298;11.238;2022-12-18T16:51:52;-5.90;93.50
50690;DHT22;54375;48.298;11.238;2022-12-18T17:11:55;-5.90;93.50
50690;DHT22;54375;48.298;11.238;2022-12-18T17:31:58;-5.80;93.60
50690;DHT22;54375;48.298;11.238;2022-12-18T17:52:00;-5.90;93.80
50690;DHT22;54375;48.298;11.238;2022-12-18T18:12:03;-6.00;94.10
50690;DHT22;54375;48.298;11.238;2022-12-18T18:32:05;-6.00;94.20
50690;DHT22;54375;48.298;11.238;2022-12-18T18:52:07;-6.10;94.40
50690;DHT22;54375;48.298;11.238;2022-12-18T19:12:10;-6.10;94.70
50690;DHT22;54375;48.298;11.238;2022-12-18T19:32:12;-6.20;94.90
50690;DHT22;54375;48.298;11.238;2022-12-18T19:52:15;-6.10;94.90
50690;DHT22;54375;48.298;11.238;2022-12-18T20:12:17;-6.00;94.80
50690;DHT22;54375;48.298;11.238;2022-12-18T20:32:19;-6.00;95.00
50690;DHT22;54375;48.298;11.238;2022-12-18T20:52:22;-5.90;95.10
50690;DHT22;54375;48.298;11.238;2022-12-18T21:12:24;-5.90;94.90
50690;DHT22;54375;48.298;11.238;2022-12-18T21:32:26;-5.90;95.10
50690;DHT22;54375;48.298;11.238;2022-12-18T21:52:29;-5.80;94.90
50690;DHT22;54375;48.298;11.238;2022-12-18T22:12:31;-5.80;94.80
50690;DHT22;54375;48.298;11.238;2022-12-18T22:32:34;-6.00;94.60
50690;DHT22;54375;48.298;11.238;2022-12-18T22:52:37;-6.10;94.60
50690;DHT22;54375;48.298;11.238;2022-12-18T23:12:39;-6.10;94.40
50690;DHT22;54375;48.298;11.238;2022-12-18T23:32:41;-6.20;94.40
50690;DHT22;54375;48.298;11.238;2022-12-18T23:52:44;-6.20;94.30
